Time;durP1;ratioP1;P1;durP2;ratioP2;P2;SDS_P1;SDS_P2;PMS_P1;PMS_P2;Temp;Humidity;BMP_temperature;BMP_pressure;BME280_temperature;BME280_humidity;BME280_pressure;Samples;Min_cycle;Max_cycle;Signal;HPM_P1;HPM_P2
2021/04/08 00:01:23;;;;;;;9.05;5.20;;;;;;;;;;5044132;28;20467;-67
2021/04/08 00:03:49;;;;;;;7.68;5.30;;;;;;;;;;5049468;28;20025;-65
2021/04/08 00:06:16;;;;;;;9.15;6.25;;;;;;;;;;5049351;28;20029;-67
2021/04/08 00:08:42;;;;;;;12.38;5.90;;;;;;;;;;5040699;28;20022;-68
2021/04/08 00:11:08;;;;;;;9.10;5.80;;;;;;;;;;5047604;28;20167;-67
2021/04/08 00:13:34;;;;;;;10.73;6.45;;;;;;;;;;5053657;28;20028;-67
2021/04/08 00:16:01;;;;;;;8.00;5.30;;;;;;;;;;5054920;28;20095;-67
2021/04/08 00:18:27;;;;;;;10.40;5.43;;;;;;;;;;5049786;28;20033;-66
2021/04/08 00:20:53;;;;;;;10.48;6.05;;;;;;;;;;5052332;28;20451;-66
2021/04/08 00:23:19;;;;;;;8.90;5.00;;;;;;;;;;5051260;28;20026;-66
2021/04/08 00:25:45;;;;;;;11.73;5.78;;;;;;;;;;5053892;28;20039;-66
2021/04/08 00:28:11;;;;;;;10.65;6.15;;;;;;;;;;5034142;28;20079;-68
2021/04/08 00:30:43;;;;;;;9.48;5.88;;;;;;;;;;5053232;28;20029;-65
2021/04/08 00:33:10;;;;;;;10.07;6.38;;;;;;;;;;5052818;28;20087;-65
2021/04/08 00:35:38;;;;;;;9.10;6.47;;;;;;;;;;5052283;28;20133;-65
2021/04/08 00:38:04;;;;;;;9.43;6.10;;;;;;;;;;5053714;28;20036;-62
2021/04/08 00:40:30;;;;;;;11.63;6.38;;;;;;;;;;5051114;28;20119;-65
2021/04/08 00:42:57;;;;;;;10.57;6.53;;;;;;;;;;5053935;28;20040;-64
2021/04/08 00:45:23;;;;;;;10.98;6.60;;;;;;;;;;5038883;28;20064;-65
2021/04/08 00:47:49;;;;;;;10.38;6.13;;;;;;;;;;5053239;28;20057;-65
2021/04/08 00:50:16;;;;;;;12.02;7.22;;;;;;;;;;5052423;28;20116;-64
2021/04/08 00:52:42;;;;;;;12.30;6.82;;;;;;;;;;5034646;28;20507;-64
2021/04/08 00:55:09;;;;;;;9.68;6.35;;;;;;;;;;5034707;28;20052;-65
2021/04/08 00:57:35;;;;;;;10.07;6.47;;;;;;;;;;5033943;28;20025;-65
2021/04/08 01:00:05;;;;;;;9.77;6.45;;;;;;;;;;5034470;28;20041;-65
2021/04/08 01:02:31;;;;;;;12.30;7.03;;;;;;;;;;5034570;28;20022;-64
2021/04/08 01:04:58;;;;;;;13.85;6.57;;;;;;;;;;5033901;28;20386;-62
2021/04/08 01:07:24;;;;;;;10.13;6.35;;;;;;;;;;5033335;28;20427;-61
2021/04/08 01:09:50;;;;;;;13.18;7.35;;;;;;;;;;5033263;28;20032;-62
2021/04/08 01:12:16;;;;;;;11.82;6.88;;;;;;;;;;5033322;28;20041;-62
2021/04/08 01:14:42;;;;;;;12.80;7.15;;;;;;;;;;5033261;28;20036;-62
2021/04/08 01:17:08;;;;;;;10.27;6.80;;;;;;;;;;5034057;28;20061;-62
2021/04/08 01:19:53;;;;;;;11.50;7.40;;;;;;;;;;5033201;28;20057;-62
2021/04/08 01:22:25;;;;;;;13.07;7.40;;;;;;;;;;5033666;28;20102;-62
2021/04/08 01:24:51;;;;;;;11.40;6.35;;;;;;;;;;5033660;28;20030;-62
2021/04/08 01:27:31;;;;;;;14.02;7.28;;;;;;;;;;5034016;28;20040;-62
2021/04/08 01:30:09;;;;;;;13.60;8.18;;;;;;;;;;5033713;28;20357;-62
2021/04/08 01:32:38;;;;;;;13.80;7.07;;;;;;;;;;5034033;28;20029;-62
2021/04/08 01:35:05;;;;;;;12.88;7.38;;;;;;;;;;5033657;28;20028;-62
2021/04/08 01:37:39;;;;;;;11.98;7.05;;;;;;;;;;5045083;28;20025;-62
2021/04/08 01:40:07;;;;;;;10.65;6.88;;;;;;;;;;5053245;28;20032;-62
2021/04/08 01:42:33;;;;;;;11.77;7.60;;;;;;;;;;5053779;28;20083;-62
2021/04/08 01:45:01;;;;;;;11.00;7.22;;;;;;;;;;5049704;28;20083;-61
2021/04/08 01:47:29;;;;;;;11.32;6.57;;;;;;;;;;5042862;28;20129;-61
2021/04/08 01:49:56;;;;;;;11.23;7.00;;;;;;;;;;5053322;28;20112;-61
2021/04/08 01:52:23;;;;;;;12.57;6.60;;;;;;;;;;5035638;28;20018;-61
2021/04/08 01:54:52;;;;;;;11.73;6.47;;;;;;;;;;5033111;28;20025;-61
2021/04/08 01:57:17;;;;;;;;;;;;;;;;;;5032904;28;20395;-61
2021/04/08 01:59:44;;;;;;;10.45;6.13;;;;;;;;;;5015637;28;19940;-61
2021/04/08 02:02:11;;;;;;;13.32;8.18;;;;;;;;;;5033160;28;20029;-61
2021/04/08 02:04:38;;;;;;;11.57;6.95;;;;;;;;;;5033580;28;20036;-61
2021/04/08 02:07:04;;;;;;;14.35;7.20;;;;;;;;;;5033083;28;20033;-61
2021/04/08 02:09:31;;;;;;;14.25;8.27;;;;;;;;;;5046370;28;20033;-61
2021/04/08 02:11:58;;;;;;;12.80;7.30;;;;;;;;;;5035314;28;20426;-61
2021/04/08 02:14:25;;;;;;;10.77;6.93;;;;;;;;;;5053210;28;20029;-61
2021/04/08 02:16:51;;;;;;;14.77;7.78;;;;;;;;;;5052637;28;20040;-61
2021/04/08 02:19:18;;;;;;;12.30;7.63;;;;;;;;;;5052577;28;20024;-61
2021/04/08 02:21:46;;;;;;;13.15;8.07;;;;;;;;;;5052910;28;20086;-61
2021/04/08 02:24:12;;;;;;;13.20;7.68;;;;;;;;;;5052749;28;20020;-61
2021/04/08 02:26:42;;;;;;;12.23;7.18;;;;;;;;;;5052581;28;20025;-62
2021/04/08 02:29:09;;;;;;;11.40;6.90;;;;;;;;;;5052509;28;20091;-62
2021/04/08 02:31:39;;;;;;;10.63;6.63;;;;;;;;;;5052785;28;20036;-62
2021/04/08 02:34:05;;;;;;;13.57;7.90;;;;;;;;;;5051458;28;20024;-61
2021/04/08 02:36:32;;;;;;;11.25;7.80;;;;;;;;;;5052656;28;20113;-61
2021/04/08 02:38:58;;;;;;;13.95;7.47;;;;;;;;;;5038306;28;20024;-62
2021/04/08 02:41:24;;;;;;;12.35;7.82;;;;;;;;;;5052757;28;20079;-62
2021/04/08 02:43:50;;;;;;;13.35;8.40;;;;;;;;;;5052085;28;20024;-61
2021/04/08 02:46:16;;;;;;;11.88;7.80;;;;;;;;;;5034863;28;20047;-61
2021/04/08 02:48:42;;;;;;;11.68;7.15;;;;;;;;;;5052144;28;20053;-61
2021/04/08 02:51:10;;;;;;;14.38;7.93;;;;;;;;;;5052680;28;20088;-61
2021/04/08 02:53:47;;;;;;;11.95;7.40;;;;;;;;;;5052139;28;20455;-61
2021/04/08 02:56:22;;;;;;;12.23;8.20;;;;;;;;;;5039553;28;20356;-61
2021/04/08 02:58:49;;;;;;;11.63;6.60;;;;;;;;;;5051895;28;20056;-61
2021/04/08 03:01:18;;;;;;;9.55;6.78;;;;;;;;;;5052449;28;20116;-61
2021/04/08 03:03:58;;;;;;;13.35;7.78;;;;;;;;;;5052196;28;20028;-61
2021/04/08 03:06:25;;;;;;;15.32;8.10;;;;;;;;;;5036713;28;20025;-62
2021/04/08 03:08:54;;;;;;;12.45;7.45;;;;;;;;;;5051679;28;20056;-61
2021/04/08 03:11:23;;;;;;;13.90;6.90;;;;;;;;;;5051989;28;20036;-62
2021/04/08 03:13:51;;;;;;;12.32;6.85;;;;;;;;;;5051750;28;20410;-61
2021/04/08 03:16:20;;;;;;;9.55;6.88;;;;;;;;;;5020091;28;20103;-62
2021/04/08 03:18:45;;;;;;;;;;;;;;;;;;5052811;28;20051;-61
2021/04/08 03:21:12;;;;;;;12.55;7.05;;;;;;;;;;5051711;28;19913;-62
2021/04/08 03:23:39;;;;;;;14.73;7.15;;;;;;;;;;5051670;28;20037;-61
2021/04/08 03:26:05;;;;;;;10.73;7.53;;;;;;;;;;5051733;28;20040;-61
2021/04/08 03:28:32;;;;;;;12.98;7.90;;;;;;;;;;5051798;28;20029;-61
2021/04/08 03:30:58;;;;;;;12.32;7.88;;;;;;;;;;5051953;28;20395;-61
2021/04/08 03:33:24;;;;;;;8.38;5.82;;;;;;;;;;5049407;28;20043;-61
2021/04/08 03:35:51;;;;;;;11.27;6.97;;;;;;;;;;5051706;28;20114;-62
2021/04/08 03:38:18;;;;;;;13.13;7.30;;;;;;;;;;5048371;28;20562;-61
2021/04/08 03:40:44;;;;;;;13.70;8.00;;;;;;;;;;5035322;28;20041;-61
2021/04/08 03:43:12;;;;;;;10.07;6.82;;;;;;;;;;5045215;28;20029;-62
2021/04/08 03:45:38;;;;;;;14.25;7.43;;;;;;;;;;5033988;28;20036;-61
2021/04/08 03:48:05;;;;;;;11.57;6.95;;;;;;;;;;5035537;28;20411;-61
2021/04/08 03:50:31;;;;;;;12.00;7.63;;;;;;;;;;5041543;28;20017;-63
2021/04/08 03:52:57;;;;;;;10.25;6.88;;;;;;;;;;5043838;28;20029;-61
2021/04/08 03:55:25;;;;;;;11.80;6.85;;;;;;;;;;5035040;28;20030;-61
2021/04/08 03:57:53;;;;;;;12.65;7.18;;;;;;;;;;5035911;28;20021;-61
2021/04/08 04:00:20;;;;;;;12.38;6.82;;;;;;;;;;5035469;28;20038;-61
2021/04/08 04:02:46;;;;;;;13.27;7.88;;;;;;;;;;5035564;28;20017;-61
2021/04/08 04:05:13;;;;;;;13.13;7.43;;;;;;;;;;5035259;28;20057;-61
2021/04/08 04:07:41;;;;;;;9.82;6.28;;;;;;;;;;5041639;28;20020;-61
2021/04/08 04:10:07;;;;;;;10.48;6.85;;;;;;;;;;5042374;28;20029;-61
2021/04/08 04:12:36;;;;;;;10.65;6.43;;;;;;;;;;5035304;28;20025;-61
2021/04/08 04:15:06;;;;;;;11.27;7.10;;;;;;;;;;5035097;28;20029;-62
2021/04/08 04:17:33;;;;;;;10.02;6.32;;;;;;;;;;5035264;28;20104;-62
2021/04/08 04:20:00;;;;;;;9.30;6.65;;;;;;;;;;5034786;28;20029;-62
2021/04/08 04:22:26;;;;;;;11.40;6.55;;;;;;;;;;5034910;28;20387;-61
2021/04/08 04:24:52;;;;;;;13.80;8.50;;;;;;;;;;5035071;28;20029;-63
2021/04/08 04:27:18;;;;;;;12.48;7.30;;;;;;;;;;5035217;28;20444;-63
2021/04/08 04:29:45;;;;;;;12.60;8.10;;;;;;;;;;5035133;28;20093;-62
2021/04/08 04:32:11;;;;;;;13.65;7.47;;;;;;;;;;5035272;28;20037;-63
2021/04/08 04:34:40;;;;;;;13.27;6.97;;;;;;;;;;5034917;28;20026;-64
2021/04/08 04:37:06;;;;;;;13.80;7.85;;;;;;;;;;5045677;28;20386;-65
2021/04/08 04:39:33;;;;;;;11.50;6.97;;;;;;;;;;5040590;28;20021;-63
2021/04/08 04:41:59;;;;;;;13.65;8.02;;;;;;;;;;5055675;28;20029;-63
2021/04/08 04:44:25;;;;;;;13.20;7.60;;;;;;;;;;5054836;28;20047;-61
2021/04/08 04:46:52;;;;;;;14.02;7.70;;;;;;;;;;5034954;28;20033;-62
2021/04/08 04:49:18;;;;;;;13.80;8.13;;;;;;;;;;5034205;28;20055;-62
2021/04/08 04:51:44;;;;;;;15.23;7.72;;;;;;;;;;5034239;28;20033;-62
2021/04/08 04:54:10;;;;;;;14.88;7.68;;;;;;;;;;5034347;28;20021;-62
2021/04/08 04:56:36;;;;;;;22.67;14.05;;;;;;;;;;5033700;28;20036;-61
2021/04/08 04:59:02;;;;;;;17.60;9.70;;;;;;;;;;5036667;28;20029;-63
2021/04/08 05:01:28;;;;;;;17.50;9.57;;;;;;;;;;5036314;28;20041;-63
2021/04/08 05:03:54;;;;;;;36.67;22.55;;;;;;;;;;5055578;28;20032;-64
2021/04/08 05:06:21;;;;;;;19.05;12.00;;;;;;;;;;5055977;28;20100;-67
2021/04/08 05:08:47;;;;;;;14.80;11.90;;;;;;;;;;5056748;28;20044;-64
2021/04/08 05:11:13;;;;;;;16.67;10.45;;;;;;;;;;5056859;28;20359;-63
2021/04/08 05:13:39;;;;;;;13.85;9.07;;;;;;;;;;5056599;28;20441;-64
2021/04/08 05:16:06;;;;;;;11.13;6.70;;;;;;;;;;5055798;28;20029;-62
2021/04/08 05:18:32;;;;;;;19.58;12.20;;;;;;;;;;5053828;28;20128;-60
2021/04/08 05:20:58;;;;;;;13.40;9.48;;;;;;;;;;5053819;28;20048;-63
2021/04/08 05:23:24;;;;;;;14.93;9.52;;;;;;;;;;5053922;28;20025;-61
2021/04/08 05:25:51;;;;;;;13.88;9.85;;;;;;;;;;5053826;28;20039;-61
2021/04/08 05:28:17;;;;;;;20.08;13.48;;;;;;;;;;5053872;28;20029;-61
2021/04/08 05:30:43;;;;;;;20.65;13.50;;;;;;;;;;5054399;28;20029;-61
2021/04/08 05:33:09;;;;;;;16.25;9.98;;;;;;;;;;5053899;28;20047;-61
2021/04/08 05:35:35;;;;;;;16.15;10.00;;;;;;;;;;5050495;28;20104;-61
2021/04/08 05:38:01;;;;;;;13.35;9.48;;;;;;;;;;5053614;28;20025;-62
2021/04/08 05:40:27;;;;;;;16.00;10.27;;;;;;;;;;5053530;28;20094;-61
2021/04/08 05:42:53;;;;;;;14.98;8.35;;;;;;;;;;5053697;28;20106;-62
2021/04/08 05:45:21;;;;;;;12.23;8.60;;;;;;;;;;5053773;28;20025;-62
2021/04/08 05:47:48;;;;;;;15.63;10.35;;;;;;;;;;5053177;28;20445;-62
2021/04/08 05:50:14;;;;;;;14.23;8.90;;;;;;;;;;5044335;28;20017;-62
2021/04/08 05:52:41;;;;;;;14.68;8.57;;;;;;;;;;5048935;28;20052;-61
2021/04/08 05:55:07;;;;;;;15.95;9.23;;;;;;;;;;5053343;28;20029;-63
2021/04/08 05:57:33;;;;;;;13.70;8.50;;;;;;;;;;5040937;28;20147;-63
2021/04/08 06:00:00;;;;;;;14.73;8.15;;;;;;;;;;5049699;28;20037;-60
2021/04/08 06:02:26;;;;;;;13.63;9.13;;;;;;;;;;5051884;28;20084;-61
2021/04/08 06:04:52;;;;;;;17.13;10.00;;;;;;;;;;5049671;28;20033;-61
2021/04/08 06:07:18;;;;;;;16.52;9.85;;;;;;;;;;5051530;28;20100;-60
2021/04/08 06:09:44;;;;;;;14.75;9.27;;;;;;;;;;5050214;28;20059;-60
2021/04/08 06:12:10;;;;;;;17.25;10.43;;;;;;;;;;5053306;28;20028;-59
2021/04/08 06:14:37;;;;;;;20.67;10.20;;;;;;;;;;5052993;28;20031;-59
2021/04/08 06:17:04;;;;;;;21.15;10.18;;;;;;;;;;5053150;28;20028;-61
2021/04/08 06:19:30;;;;;;;13.18;9.00;;;;;;;;;;5052552;28;20025;-60
2021/04/08 06:21:56;;;;;;;21.88;9.63;;;;;;;;;;5052694;28;20032;-61
2021/04/08 06:24:23;;;;;;;16.10;9.32;;;;;;;;;;5053188;28;20025;-62
2021/04/08 06:26:49;;;;;;;15.38;8.30;;;;;;;;;;5052746;28;20041;-60
2021/04/08 06:29:15;;;;;;;12.63;7.60;;;;;;;;;;5052727;28;20137;-59
2021/04/08 06:31:42;;;;;;;9.30;6.63;;;;;;;;;;5052846;28;20025;-60
2021/04/08 06:34:08;;;;;;;15.98;8.95;;;;;;;;;;5052965;28;20017;-61
2021/04/08 06:36:34;;;;;;;14.27;8.48;;;;;;;;;;5052911;28;20406;-63
2021/04/08 06:39:00;;;;;;;17.60;10.18;;;;;;;;;;5053022;28;20029;-62
2021/04/08 06:41:26;;;;;;;14.10;7.60;;;;;;;;;;5055327;28;20043;-65
2021/04/08 06:43:54;;;;;;;15.52;8.45;;;;;;;;;;5058365;28;20089;-63
2021/04/08 06:46:21;;;;;;;10.50;7.18;;;;;;;;;;5062280;28;20025;-65
2021/04/08 06:48:51;;;;;;;11.10;6.55;;;;;;;;;;5057250;28;20056;-62
2021/04/08 06:51:18;;;;;;;13.15;8.00;;;;;;;;;;5057754;28;20021;-63
2021/04/08 06:53:45;;;;;;;13.93;7.13;;;;;;;;;;5055178;28;20048;-61
2021/04/08 06:56:11;;;;;;;15.52;7.75;;;;;;;;;;5052593;28;20029;-62
2021/04/08 06:58:38;;;;;;;13.90;8.43;;;;;;;;;;5052060;28;20054;-62
2021/04/08 07:01:10;;;;;;;14.68;7.63;;;;;;;;;;5052431;28;20087;-62
2021/04/08 07:03:37;;;;;;;10.85;7.22;;;;;;;;;;5052107;28;20032;-61
2021/04/08 07:06:03;;;;;;;16.02;7.53;;;;;;;;;;5049966;28;20080;-62
2021/04/08 07:08:30;;;;;;;14.65;8.68;;;;;;;;;;5052022;28;20501;-61
2021/04/08 07:10:57;;;;;;;14.60;8.90;;;;;;;;;;5048307;28;20025;-61
2021/04/08 07:13:26;;;;;;;13.98;8.02;;;;;;;;;;5052209;28;20025;-62
2021/04/08 07:15:51;;;;;;;;;;;;;;;;;;5051596;28;20387;-61
2021/04/08 07:18:18;;;;;;;12.07;7.38;;;;;;;;;;5032182;28;19917;-61
2021/04/08 07:20:44;;;;;;;12.50;7.43;;;;;;;;;;5031213;28;20480;-62
2021/04/08 07:23:11;;;;;;;15.63;7.60;;;;;;;;;;5036950;28;20032;-62
2021/04/08 07:25:37;;;;;;;10.57;6.43;;;;;;;;;;5041163;28;20052;-61
2021/04/08 07:28:22;;;;;;;13.43;5.85;;;;;;;;;;5031980;28;20037;-62
2021/04/08 07:30:48;;;;;;;9.50;6.22;;;;;;;;;;5031898;28;20044;-62
2021/04/08 07:33:14;;;;;;;10.18;5.95;;;;;;;;;;5031706;28;20028;-62
2021/04/08 07:35:41;;;;;;;9.85;5.57;;;;;;;;;;5031859;28;20138;-62
2021/04/08 07:38:08;;;;;;;7.97;6.20;;;;;;;;;;5031833;28;20028;-62
2021/04/08 07:40:34;;;;;;;11.07;5.97;;;;;;;;;;5038773;28;20037;-62
2021/04/08 07:43:15;;;;;;;9.57;6.18;;;;;;;;;;5038813;28;20431;-62
2021/04/08 07:45:41;;;;;;;9.48;5.63;;;;;;;;;;5031646;28;20032;-62
2021/04/08 07:48:08;;;;;;;8.30;5.32;;;;;;;;;;5031621;28;20462;-62
2021/04/08 07:50:35;;;;;;;10.15;6.07;;;;;;;;;;5031462;28;20029;-61
2021/04/08 07:53:02;;;;;;;11.27;5.57;;;;;;;;;;5040067;28;20040;-62
2021/04/08 07:55:30;;;;;;;7.60;5.03;;;;;;;;;;5051750;28;20033;-62
2021/04/08 07:58:03;;;;;;;8.70;6.00;;;;;;;;;;5051563;28;20025;-63
2021/04/08 08:00:36;;;;;;;10.30;5.85;;;;;;;;;;5051535;28;20080;-63
2021/04/08 08:03:04;;;;;;;10.85;6.65;;;;;;;;;;5051415;28;20023;-62
2021/04/08 08:05:36;;;;;;;9.00;4.72;;;;;;;;;;5051597;28;20033;-63
2021/04/08 08:08:21;;;;;;;9.57;5.40;;;;;;;;;;5051769;28;20033;-63
2021/04/08 08:11:00;;;;;;;9.60;5.53;;;;;;;;;;5051067;28;20039;-63
2021/04/08 08:13:39;;;;;;;8.77;5.57;;;;;;;;;;5051436;28;20467;-62
2021/04/08 08:16:06;;;;;;;10.00;5.20;;;;;;;;;;5050232;28;20028;-63
2021/04/08 08:18:37;;;;;;;8.95;5.25;;;;;;;;;;5050846;28;20028;-62
2021/04/08 08:21:10;;;;;;;8.00;4.88;;;;;;;;;;5047630;28;20037;-63
2021/04/08 08:23:41;;;;;;;10.30;5.50;;;;;;;;;;5036682;28;20028;-62
2021/04/08 08:26:25;;;;;;;10.18;5.32;;;;;;;;;;5045373;28;20061;-62
2021/04/08 08:28:52;;;;;;;10.43;5.90;;;;;;;;;;5051595;28;20045;-62
2021/04/08 08:31:34;;;;;;;12.15;5.70;;;;;;;;;;5051235;28;20068;-62
2021/04/08 08:34:03;;;;;;;9.13;4.97;;;;;;;;;;5054574;28;20033;-63
2021/04/08 08:36:30;;;;;;;8.27;5.15;;;;;;;;;;5051856;28;20017;-63
2021/04/08 08:38:56;;;;;;;7.25;5.40;;;;;;;;;;5047651;28;20042;-63
2021/04/08 08:41:23;;;;;;;9.85;4.75;;;;;;;;;;5051297;28;20029;-63
2021/04/08 08:43:49;;;;;;;7.63;4.70;;;;;;;;;;5046401;28;20021;-63
2021/04/08 08:46:16;;;;;;;9.95;4.90;;;;;;;;;;5050902;28;20108;-64
2021/04/08 08:48:42;;;;;;;7.40;3.83;;;;;;;;;;5046453;28;20645;-62
2021/04/08 08:51:08;;;;;;;6.78;4.65;;;;;;;;;;5053671;28;20021;-63
2021/04/08 08:53:34;;;;;;;5.85;3.92;;;;;;;;;;5039019;28;20025;-63
2021/04/08 08:56:01;;;;;;;8.68;4.72;;;;;;;;;;5034961;28;20104;-65
2021/04/08 08:58:27;;;;;;;7.07;4.03;;;;;;;;;;5034515;28;20033;-62
2021/04/08 09:00:56;;;;;;;5.20;3.47;;;;;;;;;;5039816;28;20067;-62
2021/04/08 09:03:22;;;;;;;6.18;3.40;;;;;;;;;;5054311;28;20036;-62
2021/04/08 09:05:49;;;;;;;7.13;4.20;;;;;;;;;;5046478;28;20051;-59
2021/04/08 09:08:23;;;;;;;7.95;4.20;;;;;;;;;;5038830;28;20026;-60
2021/04/08 09:10:49;;;;;;;9.25;4.93;;;;;;;;;;5032902;28;20380;-61
2021/04/08 09:13:15;;;;;;;5.75;3.83;;;;;;;;;;5032381;28;20021;-63
2021/04/08 09:15:42;;;;;;;4.80;3.78;;;;;;;;;;5044717;28;20024;-57
2021/04/08 09:18:09;;;;;;;5.82;3.78;;;;;;;;;;5045388;28;20368;-57
2021/04/08 09:20:35;;;;;;;8.45;4.05;;;;;;;;;;5051162;28;20071;-63
2021/04/08 09:23:04;;;;;;;4.55;3.67;;;;;;;;;;5039711;28;20026;-62
2021/04/08 09:25:35;;;;;;;5.28;3.72;;;;;;;;;;5049529;28;20125;-59
2021/04/08 09:28:08;;;;;;;5.95;3.50;;;;;;;;;;5043892;28;20028;-58
2021/04/08 09:30:55;;;;;;;5.25;3.55;;;;;;;;;;5038647;28;20062;-58
2021/04/08 09:33:41;;;;;;;5.28;3.60;;;;;;;;;;5048458;28;20103;-56
2021/04/08 09:36:26;;;;;;;4.00;2.33;;;;;;;;;;5051386;28;20044;-57
2021/04/08 09:38:52;;;;;;;4.80;3.53;;;;;;;;;;5038110;28;20037;-58
2021/04/08 09:41:19;;;;;;;5.50;3.13;;;;;;;;;;5046992;28;20040;-59
2021/04/08 09:43:49;;;;;;;5.00;2.72;;;;;;;;;;5045441;28;20025;-59
2021/04/08 09:46:15;;;;;;;4.32;3.17;;;;;;;;;;5041157;28;20055;-60
2021/04/08 09:49:01;;;;;;;5.05;2.53;;;;;;;;;;5047184;28;20049;-61
2021/04/08 09:51:29;;;;;;;4.78;3.00;;;;;;;;;;5040643;28;20503;-61
2021/04/08 09:53:55;;;;;;;3.97;2.63;;;;;;;;;;5037324;28;20021;-64
2021/04/08 09:56:40;;;;;;;5.15;2.95;;;;;;;;;;5038343;28;20161;-60
2021/04/08 09:59:06;;;;;;;6.07;3.47;;;;;;;;;;5044173;28;20169;-63
2021/04/08 10:01:32;;;;;;;4.78;3.05;;;;;;;;;;5041913;28;20056;-60
2021/04/08 10:04:18;;;;;;;5.07;2.75;;;;;;;;;;5027762;28;20396;-59
2021/04/08 10:06:45;;;;;;;4.82;3.28;;;;;;;;;;5041865;28;20048;-61
2021/04/08 10:09:19;;;;;;;5.15;3.60;;;;;;;;;;5125781;23;20485;-59
2021/04/08 10:11:45;;;;;;;4.47;2.97;;;;;;;;;;5049302;28;20061;-59
2021/04/08 10:14:20;;;;;;;6.85;3.63;;;;;;;;;;5039119;28;20097;-58
2021/04/08 10:17:06;;;;;;;4.03;2.67;;;;;;;;;;5040179;28;20033;-60
2021/04/08 10:19:34;;;;;;;5.60;3.33;;;;;;;;;;5039792;28;20021;-59
2021/04/08 10:22:00;;;;;;;4.35;2.55;;;;;;;;;;5039941;28;20116;-61
2021/04/08 10:24:32;;;;;;;3.35;2.95;;;;;;;;;;5045475;28;20017;-60
2021/04/08 10:26:58;;;;;;;4.13;2.90;;;;;;;;;;5053213;28;20041;-58
2021/04/08 10:29:32;;;;;;;4.07;2.80;;;;;;;;;;5052899;28;20021;-58
2021/04/08 10:31:58;;;;;;;4.28;3.42;;;;;;;;;;5053029;28;20521;-59
2021/04/08 10:34:32;;;;;;;5.18;2.55;;;;;;;;;;5052427;28;20194;-59
2021/04/08 10:36:58;;;;;;;4.65;2.53;;;;;;;;;;5053383;28;20087;-62
2021/04/08 10:39:34;;;;;;;3.85;3.08;;;;;;;;;;5053303;28;20029;-58
2021/04/08 10:42:05;;;;;;;5.90;3.35;;;;;;;;;;5050280;28;20508;-60
2021/04/08 10:44:31;;;;;;;5.18;3.33;;;;;;;;;;5052639;28;20366;-60
2021/04/08 10:46:59;;;;;;;13.43;3.20;;;;;;;;;;5052569;28;20021;-58
2021/04/08 10:49:29;;;;;;;5.20;2.83;;;;;;;;;;5046411;28;20463;-58
2021/04/08 10:51:56;;;;;;;3.78;2.65;;;;;;;;;;5052626;28;20021;-59
2021/04/08 10:54:26;;;;;;;5.97;2.75;;;;;;;;;;5051354;28;20025;-58
2021/04/08 10:56:55;;;;;;;3.35;2.80;;;;;;;;;;5052500;28;20475;-58
2021/04/08 10:59:21;;;;;;;;;;;;;;;;;;5052735;28;20378;-59
2021/04/08 11:01:55;;;;;;;5.03;2.75;;;;;;;;;;5037776;28;19913;-63
2021/04/08 11:04:21;;;;;;;3.60;2.83;;;;;;;;;;5032404;28;20088;-59
2021/04/08 11:06:48;;;;;;;3.63;2.63;;;;;;;;;;5036865;28;20467;-59
2021/04/08 11:09:21;;;;;;;3.83;2.45;;;;;;;;;;5041850;28;20087;-58
2021/04/08 11:11:48;;;;;;;4.10;3.10;;;;;;;;;;5048148;28;20044;-58
2021/04/08 11:14:21;;;;;;;5.20;3.35;;;;;;;;;;5032502;28;20017;-58
2021/04/08 11:16:47;;;;;;;3.33;2.75;;;;;;;;;;5046188;28;20040;-58
2021/04/08 11:19:17;;;;;;;3.65;2.60;;;;;;;;;;5035728;28;20030;-58
2021/04/08 11:21:43;;;;;;;4.03;2.55;;;;;;;;;;5031443;28;20033;-60
2021/04/08 11:24:10;;;;;;;6.45;3.03;;;;;;;;;;5042154;28;20467;-58
2021/04/08 11:27:05;;;;;;;3.97;2.70;;;;;;;;;;5035546;28;20049;-58
2021/04/08 11:29:31;;;;;;;4.78;2.72;;;;;;;;;;4962894;28;20057;-58
2021/04/08 11:32:08;;;;;;;4.15;3.08;;;;;;;;;;4971564;28;20051;-59
2021/04/08 11:35:00;;;;;;;6.65;3.55;;;;;;;;;;4970841;28;20066;-64
2021/04/08 11:37:37;;;;;;;5.20;3.53;;;;;;;;;;4954433;28;20045;-59
2021/04/08 11:40:04;;;;;;;4.88;3.58;;;;;;;;;;4970145;28;20047;-59
2021/04/08 11:42:35;;;;;;;4.50;3.08;;;;;;;;;;4971146;28;20146;-58
2021/04/08 11:45:22;;;;;;;4.25;3.65;;;;;;;;;;4970873;28;20046;-58
2021/04/08 11:47:57;;;;;;;4.07;3.20;;;;;;;;;;4970889;28;20081;-58
2021/04/08 11:50:29;;;;;;;6.95;3.28;;;;;;;;;;4971048;28;20030;-60
2021/04/08 11:53:01;;;;;;;3.78;2.42;;;;;;;;;;4959023;28;20035;-58
2021/04/08 11:55:38;;;;;;;6.13;3.20;;;;;;;;;;4970875;28;20030;-59
2021/04/08 11:58:04;;;;;;;4.00;3.35;;;;;;;;;;4970570;28;20612;-61
2021/04/08 12:00:34;;;;;;;6.30;3.25;;;;;;;;;;4969920;28;20042;-59
2021/04/08 12:03:12;;;;;;;5.28;2.88;;;;;;;;;;4970274;28;20500;-58
2021/04/08 12:05:39;;;;;;;5.53;3.17;;;;;;;;;;4995651;28;20120;-60
2021/04/08 12:08:05;;;;;;;4.18;2.42;;;;;;;;;;5044293;28;20095;-58
2021/04/08 12:10:34;;;;;;;4.43;2.63;;;;;;;;;;5039463;28;20079;-58
2021/04/08 12:13:05;;;;;;;3.88;2.95;;;;;;;;;;5042737;28;20048;-58
2021/04/08 12:15:34;;;;;;;4.18;2.92;;;;;;;;;;5046724;28;20107;-60
2021/04/08 12:18:00;;;;;;;4.80;2.80;;;;;;;;;;5034570;28;20101;-59
2021/04/08 12:20:28;;;;;;;6.20;2.75;;;;;;;;;;5034651;28;20084;-59
2021/04/08 12:22:54;;;;;;;8.07;3.58;;;;;;;;;;5034337;28;20104;-58
2021/04/08 12:25:21;;;;;;;4.97;3.03;;;;;;;;;;5034648;28;20108;-58
2021/04/08 12:27:48;;;;;;;4.07;2.65;;;;;;;;;;5034880;28;20025;-60
2021/04/08 12:30:14;;;;;;;7.35;3.65;;;;;;;;;;5040238;28;20024;-58
2021/04/08 12:32:41;;;;;;;4.10;2.88;;;;;;;;;;5041998;28;20021;-61
2021/04/08 12:35:08;;;;;;;4.72;3.72;;;;;;;;;;5034790;28;20044;-58
2021/04/08 12:37:34;;;;;;;4.78;2.53;;;;;;;;;;5043033;28;20057;-58
2021/04/08 12:40:02;;;;;;;7.82;2.60;;;;;;;;;;5038491;28;20027;-58
2021/04/08 12:42:46;;;;;;;4.28;3.72;;;;;;;;;;5034857;28;20091;-58
2021/04/08 12:45:12;;;;;;;5.47;3.38;;;;;;;;;;5020665;28;20021;-64
2021/04/08 12:47:38;;;;;;;4.18;2.92;;;;;;;;;;5038047;28;20164;-63
2021/04/08 12:50:05;;;;;;;4.40;2.90;;;;;;;;;;5033674;28;20029;-63
2021/04/08 12:52:31;;;;;;;4.78;2.67;;;;;;;;;;5039993;28;20072;-69
2021/04/08 12:54:57;;;;;;;4.97;3.05;;;;;;;;;;5038571;28;20040;-65
2021/04/08 12:57:23;;;;;;;3.40;2.30;;;;;;;;;;5032371;28;20029;-65
2021/04/08 12:59:49;;;;;;;4.35;2.55;;;;;;;;;;5031856;28;20025;-69
2021/04/08 13:02:15;;;;;;;4.60;2.35;;;;;;;;;;5031719;28;20379;-71
2021/04/08 13:04:41;;;;;;;4.50;2.70;;;;;;;;;;5033805;28;20064;-67
2021/04/08 13:07:07;;;;;;;5.18;2.97;;;;;;;;;;5041422;28;20488;-62
2021/04/08 13:09:33;;;;;;;5.63;3.42;;;;;;;;;;5038786;28;20095;-61
2021/04/08 13:11:59;;;;;;;4.78;3.00;;;;;;;;;;5039758;28;20721;-63
2021/04/08 13:14:25;;;;;;;4.50;2.72;;;;;;;;;;5049506;28;20028;-69
2021/04/08 13:16:51;;;;;;;6.20;3.10;;;;;;;;;;5036581;28;20030;-61
2021/04/08 13:19:18;;;;;;;4.38;3.20;;;;;;;;;;5029296;28;20477;-61
2021/04/08 13:21:44;;;;;;;5.63;2.90;;;;;;;;;;5030594;28;20037;-65
2021/04/08 13:24:10;;;;;;;5.03;2.50;;;;;;;;;;5029895;28;20032;-64
2021/04/08 13:26:36;;;;;;;2.92;1.90;;;;;;;;;;5030696;28;20468;-61
2021/04/08 13:29:03;;;;;;;3.95;2.15;;;;;;;;;;5030154;28;20371;-61
2021/04/08 13:31:29;;;;;;;2.83;1.65;;;;;;;;;;5030724;28;20040;-62
2021/04/08 13:33:55;;;;;;;2.95;2.05;;;;;;;;;;5029827;28;20022;-61
2021/04/08 13:36:21;;;;;;;3.90;1.70;;;;;;;;;;5037660;28;20471;-62
2021/04/08 13:38:47;;;;;;;2.72;2.00;;;;;;;;;;5032120;28;20045;-61
2021/04/08 13:41:13;;;;;;;5.93;2.38;;;;;;;;;;5050554;28;20483;-62
2021/04/08 13:43:40;;;;;;;2.08;1.85;;;;;;;;;;5050561;28;20032;-61
2021/04/08 13:46:06;;;;;;;3.65;2.38;;;;;;;;;;5051410;28;20387;-61
2021/04/08 13:48:32;;;;;;;3.10;1.90;;;;;;;;;;5042216;28;20100;-63
2021/04/08 13:50:58;;;;;;;3.53;2.47;;;;;;;;;;5051596;28;20033;-66
2021/04/08 13:53:24;;;;;;;4.85;2.70;;;;;;;;;;5049910;28;20464;-56
2021/04/08 13:55:50;;;;;;;5.63;2.30;;;;;;;;;;5052576;28;20119;-57
2021/04/08 13:58:16;;;;;;;3.53;2.70;;;;;;;;;;5053007;28;20029;-58
2021/04/08 14:00:42;;;;;;;3.08;2.20;;;;;;;;;;5052710;28;20458;-58
2021/04/08 14:03:09;;;;;;;3.47;2.25;;;;;;;;;;5052775;28;20041;-57
2021/04/08 14:05:35;;;;;;;3.63;2.15;;;;;;;;;;5038680;28;20033;-62
2021/04/08 14:08:01;;;;;;;4.00;2.35;;;;;;;;;;5034784;28;20025;-65
2021/04/08 14:10:27;;;;;;;5.45;2.83;;;;;;;;;;5039979;28;20049;-58
2021/04/08 14:12:53;;;;;;;3.88;2.55;;;;;;;;;;5042996;28;20052;-58
2021/04/08 14:15:19;;;;;;;3.83;2.40;;;;;;;;;;5049823;28;20028;-57
2021/04/08 14:17:45;;;;;;;5.35;2.20;;;;;;;;;;5040304;28;20029;-58
2021/04/08 14:20:12;;;;;;;2.63;1.98;;;;;;;;;;5039181;28;20028;-57
2021/04/08 14:22:38;;;;;;;4.25;2.35;;;;;;;;;;5040734;28;20033;-57
2021/04/08 14:25:05;;;;;;;4.32;2.60;;;;;;;;;;5048752;28;20400;-58
2021/04/08 14:27:31;;;;;;;4.38;2.72;;;;;;;;;;5041718;28;20124;-57
2021/04/08 14:29:57;;;;;;;3.92;2.10;;;;;;;;;;5047312;28;20105;-59
2021/04/08 14:32:23;;;;;;;4.43;2.17;;;;;;;;;;5045137;28;20045;-61
2021/04/08 14:34:50;;;;;;;5.55;2.65;;;;;;;;;;5048172;28;20024;-68
2021/04/08 14:37:16;;;;;;;4.70;2.15;;;;;;;;;;5043875;28;20029;-59
2021/04/08 14:39:42;;;;;;;4.05;2.30;;;;;;;;;;5040213;28;20036;-66
2021/04/08 14:42:08;;;;;;;8.15;2.70;;;;;;;;;;5045668;28;20021;-58
2021/04/08 14:44:34;;;;;;;5.38;2.80;;;;;;;;;;5026063;28;20408;-57